Alsip, Illinois
Current Conditions -  °F | °C
As of 11:53 AM on Wednesday 26 Nov 2014 (Local Time) from KMDW Reporting Station
Overcast Overcast  
Wind Chill: 21°   Ceiling: 1900
Heat Index: 28°   Visibility: 8mi
Dew Point: 20°   Wind: 7mph
Humidity: 72%   Direction: 130°SE
Pressure: 30.12"   Gusts: NA
Location:  41.67°N, 87.73°W
Report Text: KMDW 261753Z 13006KT 8SM OVC019 M02/M07 A3012 RMK AO2 SLP215 T10221067 11022 21050 58011
Loading
Personal Weather Stations






























Interactive Weather Map New forecast layout! Learn more

10-Day Weather Forecast

Advertisements
Track Severe Weather on mobile